Time;durP1;ratioP1;P1;durP2;ratioP2;P2;SDS_P1;SDS_P2;PMS_P1;PMS_P2;Temp;Humidity;BMP_temperature;BMP_pressure;BME280_temperature;BME280_humidity;BME280_pressure;Samples;Min_cycle;Max_cycle;Signal;HPM_P1;HPM_P2
2023/01/09 00:00:52;;;;;;;3.20;2.90;;;;;;;;;;4989105;28;20452;-56
2023/01/09 00:03:18;;;;;;;4.97;3.27;;;;;;;;;;4942680;28;20483;-56
2023/01/09 00:05:44;;;;;;;5.50;4.00;;;;;;;;;;4991018;28;20893;-57
2023/01/09 00:08:10;;;;;;;4.67;3.90;;;;;;;;;;4982005;28;20562;-58
2023/01/09 00:10:36;;;;;;;6.00;4.10;;;;;;;;;;4986389;28;20817;-57
2023/01/09 00:13:02;;;;;;;5.30;3.30;;;;;;;;;;4961484;28;20593;-58
2023/01/09 00:15:28;;;;;;;5.20;3.80;;;;;;;;;;4987960;28;20459;-57
2023/01/09 00:17:54;;;;;;;3.83;3.40;;;;;;;;;;4986469;28;20992;-58
2023/01/09 00:20:20;;;;;;;5.30;3.50;;;;;;;;;;4987831;28;20439;-57
2023/01/09 00:22:46;;;;;;;5.80;3.57;;;;;;;;;;4960909;28;20987;-57
2023/01/09 00:25:12;;;;;;;6.50;4.63;;;;;;;;;;4981219;28;20679;-59
2023/01/09 00:27:38;;;;;;;3.70;2.97;;;;;;;;;;4990551;28;20444;-57
2023/01/09 00:30:04;;;;;;;3.70;2.83;;;;;;;;;;4984294;28;20442;-58
2023/01/09 00:32:30;;;;;;;4.13;2.87;;;;;;;;;;4973163;28;20444;-58
2023/01/09 00:34:56;;;;;;;2.47;2.27;;;;;;;;;;4978196;28;20486;-58
2023/01/09 00:37:22;;;;;;;2.67;2.47;;;;;;;;;;4945352;28;20462;-58
2023/01/09 00:39:48;;;;;;;2.70;2.10;;;;;;;;;;4990055;28;20440;-57
2023/01/09 00:42:15;;;;;;;3.43;2.00;;;;;;;;;;4969092;28;20479;-57
2023/01/09 00:44:43;;;;;;;2.20;2.00;;;;;;;;;;4969735;28;20447;-58
2023/01/09 00:47:21;;;;;;;3.10;2.07;;;;;;;;;;4969242;28;20436;-57
2023/01/09 00:49:47;;;;;;;2.47;2.10;;;;;;;;;;4968544;28;20443;-57
2023/01/09 00:52:13;;;;;;;2.47;2.10;;;;;;;;;;4959755;28;20694;-58
2023/01/09 00:54:39;;;;;;;2.43;1.60;;;;;;;;;;4973060;28;20864;-57
2023/01/09 00:57:05;;;;;;;3.00;1.73;;;;;;;;;;4946292;28;20600;-57
2023/01/09 00:59:31;;;;;;;2.30;1.53;;;;;;;;;;4974290;28;20439;-58
2023/01/09 01:01:57;;;;;;;1.90;1.57;;;;;;;;;;4957607;28;20484;-56
2023/01/09 01:09:52;;;;;;;1.57;1.30;;;;;;;;;;4988814;28;20452;-57
2023/01/09 01:12:18;;;;;;;1.50;1.40;;;;;;;;;;4945668;28;20857;-57
2023/01/09 01:14:44;;;;;;;2.33;1.27;;;;;;;;;;4990307;28;20805;-57
2023/01/09 01:17:10;;;;;;;1.30;1.00;;;;;;;;;;4989072;28;20455;-57
2023/01/09 01:19:36;;;;;;;1.57;1.27;;;;;;;;;;4994059;28;20451;-57
2023/01/09 01:22:02;;;;;;;1.63;1.20;;;;;;;;;;4955564;28;20521;-57
2023/01/09 01:24:28;;;;;;;1.30;1.17;;;;;;;;;;4989451;28;20494;-56
2023/01/09 01:26:54;;;;;;;1.50;1.33;;;;;;;;;;4963921;28;20442;-57
2023/01/09 01:29:20;;;;;;;1.30;0.97;;;;;;;;;;4994150;28;20852;-57
2023/01/09 01:31:46;;;;;;;1.50;1.20;;;;;;;;;;4947738;28;20589;-56
2023/01/09 01:34:12;;;;;;;1.30;0.90;;;;;;;;;;4996502;28;20494;-57
2023/01/09 01:36:38;;;;;;;1.23;1.00;;;;;;;;;;4966632;28;20444;-57
2023/01/09 01:39:04;;;;;;;3.93;1.10;;;;;;;;;;4992787;28;20526;-57
2023/01/09 01:41:29;;;;;;;1.40;1.10;;;;;;;;;;4990001;28;20563;-57
2023/01/09 01:43:55;;;;;;;2.07;1.03;;;;;;;;;;4996803;28;20905;-57
2023/01/09 01:46:21;;;;;;;1.30;1.00;;;;;;;;;;4951979;28;21218;-58
2023/01/09 01:48:48;;;;;;;1.10;0.87;;;;;;;;;;4949425;28;20467;-57
2023/01/09 01:51:15;;;;;;;1.57;1.00;;;;;;;;;;4996833;28;20436;-58
2023/01/09 01:53:48;;;;;;;1.07;0.83;;;;;;;;;;4970885;28;20455;-57
2023/01/09 01:56:19;;;;;;;1.10;0.90;;;;;;;;;;4990364;28;21180;-57
2023/01/09 01:58:52;;;;;;;1.50;0.80;;;;;;;;;;4974234;28;20458;-56
2023/01/09 02:01:18;;;;;;;1.30;1.20;;;;;;;;;;4987530;28;20445;-58
2023/01/09 02:03:44;;;;;;;1.43;0.90;;;;;;;;;;4966219;28;21239;-57
2023/01/09 02:06:10;;;;;;;1.20;0.70;;;;;;;;;;4972953;28;20424;-57
2023/01/09 02:08:36;;;;;;;1.00;0.70;;;;;;;;;;4983537;28;20994;-56
2023/01/09 02:11:02;;;;;;;1.20;0.97;;;;;;;;;;4971914;28;20442;-57
2023/01/09 02:13:28;;;;;;;1.20;0.90;;;;;;;;;;4983747;28;20444;-58
2023/01/09 02:16:01;;;;;;;1.30;0.77;;;;;;;;;;4975422;28;20504;-57
2023/01/09 02:18:53;;;;;;;1.20;0.90;;;;;;;;;;4927531;28;20793;-56
2023/01/09 02:21:22;;;;;;;1.50;1.07;;;;;;;;;;4966718;28;20493;-57
2023/01/09 02:23:48;;;;;;;1.33;0.90;;;;;;;;;;4950305;28;20539;-57
2023/01/09 02:26:14;;;;;;;1.23;0.90;;;;;;;;;;4991239;28;20565;-57
2023/01/09 02:28:46;;;;;;;2.00;1.03;;;;;;;;;;4963145;28;20447;-58
2023/01/09 02:31:19;;;;;;;1.20;1.10;;;;;;;;;;4988115;28;20739;-56
2023/01/09 02:33:46;;;;;;;1.17;0.67;;;;;;;;;;4949929;28;20443;-57
2023/01/09 02:36:16;;;;;;;1.30;0.90;;;;;;;;;;4990799;28;21430;-56
2023/01/09 02:38:58;;;;;;;1.30;0.90;;;;;;;;;;4948686;28;20436;-56
2023/01/09 02:41:26;;;;;;;1.30;0.80;;;;;;;;;;4985809;28;20445;-58
2023/01/09 02:44:11;;;;;;;1.03;0.70;;;;;;;;;;4950672;28;20452;-58
2023/01/09 02:46:37;;;;;;;6.50;1.00;;;;;;;;;;4990476;28;20799;-56
2023/01/09 02:49:03;;;;;;;1.07;0.60;;;;;;;;;;4986983;28;20872;-56
2023/01/09 02:51:36;;;;;;;1.20;0.80;;;;;;;;;;4975905;28;20440;-57
2023/01/09 02:54:08;;;;;;;1.10;0.80;;;;;;;;;;4949598;28;21059;-56
2023/01/09 02:56:53;;;;;;;1.43;0.63;;;;;;;;;;4984999;28;20496;-56
2023/01/09 02:59:21;;;;;;;1.53;0.83;;;;;;;;;;4965029;28;20444;-56
2023/01/09 03:02:19;;;;;;;2.90;0.60;;;;;;;;;;4987922;28;20484;-57
2023/01/09 03:04:49;;;;;;;1.10;0.70;;;;;;;;;;4939915;28;21490;-57
2023/01/09 03:07:15;;;;;;;1.00;0.60;;;;;;;;;;4985040;28;21153;-57
2023/01/09 03:09:41;;;;;;;1.37;0.87;;;;;;;;;;4965333;28;20478;-58
2023/01/09 03:12:09;;;;;;;1.33;0.70;;;;;;;;;;4970754;28;20522;-56
2023/01/09 03:14:35;;;;;;;1.23;0.70;;;;;;;;;;4963921;28;20448;-57
2023/01/09 03:17:02;;;;;;;1.00;0.70;;;;;;;;;;4971300;28;20443;-56
2023/01/09 03:19:29;;;;;;;0.90;0.60;;;;;;;;;;4970899;28;20439;-55
2023/01/09 03:21:55;;;;;;;1.00;0.60;;;;;;;;;;4974723;28;20571;-56
2023/01/09 03:24:21;;;;;;;1.97;0.87;;;;;;;;;;4937957;28;20964;-57
2023/01/09 03:26:47;;;;;;;1.10;0.70;;;;;;;;;;4990902;28;21250;-56
2023/01/09 03:29:13;;;;;;;1.37;0.60;;;;;;;;;;4969302;28;20592;-56
2023/01/09 03:31:39;;;;;;;1.00;0.67;;;;;;;;;;4998983;28;20867;-57
2023/01/09 03:34:05;;;;;;;1.00;0.60;;;;;;;;;;4994921;28;20462;-56
2023/01/09 03:36:31;;;;;;;1.00;0.60;;;;;;;;;;4994290;28;21065;-57
2023/01/09 03:38:57;;;;;;;1.20;0.70;;;;;;;;;;4969238;28;20467;-59
2023/01/09 03:41:23;;;;;;;0.90;0.60;;;;;;;;;;4992267;28;21291;-56
2023/01/09 03:43:49;;;;;;;1.30;0.60;;;;;;;;;;4957172;28;20606;-57
2023/01/09 03:46:15;;;;;;;1.00;0.60;;;;;;;;;;4956180;28;20185;-58
2023/01/09 03:48:41;;;;;;;1.00;0.73;;;;;;;;;;4994116;28;20440;-57
2023/01/09 03:51:07;;;;;;;0.90;0.60;;;;;;;;;;4992869;28;20427;-58
2023/01/09 03:53:33;;;;;;;1.03;0.60;;;;;;;;;;4991526;28;20443;-55
2023/01/09 03:55:59;;;;;;;1.30;0.73;;;;;;;;;;4940651;28;20706;-56
2023/01/09 03:58:25;;;;;;;1.10;0.80;;;;;;;;;;4987730;28;20574;-56
2023/01/09 04:00:51;;;;;;;1.10;0.67;;;;;;;;;;4962988;28;20436;-56
2023/01/09 04:03:18;;;;;;;2.83;0.80;;;;;;;;;;4991150;28;20561;-54
2023/01/09 04:05:44;;;;;;;1.30;0.60;;;;;;;;;;4960480;28;20447;-57
2023/01/09 04:08:10;;;;;;;1.17;0.60;;;;;;;;;;4986754;28;21042;-56
2023/01/09 04:10:36;;;;;;;0.90;0.50;;;;;;;;;;4960058;28;20456;-56
2023/01/09 04:13:02;;;;;;;1.00;0.50;;;;;;;;;;4992903;28;21757;-56
2023/01/09 04:15:28;;;;;;;0.90;0.50;;;;;;;;;;4958121;28;22924;-55
2023/01/09 04:17:54;;;;;;;1.20;0.63;;;;;;;;;;4995780;28;20435;-55
2023/01/09 04:20:20;;;;;;;0.90;0.57;;;;;;;;;;4988542;28;20522;-56
2023/01/09 04:22:46;;;;;;;0.97;0.60;;;;;;;;;;4972629;28;20502;-56
2023/01/09 04:25:24;;;;;;;1.03;0.53;;;;;;;;;;4962797;28;20910;-56
2023/01/09 04:27:50;;;;;;;1.00;0.50;;;;;;;;;;4997581;28;20717;-57
2023/01/09 04:30:16;;;;;;;0.90;0.50;;;;;;;;;;4996009;28;20437;-57
2023/01/09 04:32:42;;;;;;;1.40;0.70;;;;;;;;;;4997173;28;20483;-56
2023/01/09 04:35:08;;;;;;;0.90;0.50;;;;;;;;;;4982682;28;20547;-57
2023/01/09 04:37:37;;;;;;;1.40;0.60;;;;;;;;;;4993749;28;20472;-57
2023/01/09 04:40:07;;;;;;;1.00;0.60;;;;;;;;;;4986197;28;21241;-57
2023/01/09 04:42:34;;;;;;;0.90;0.60;;;;;;;;;;4993891;28;20466;-57
2023/01/09 04:45:00;;;;;;;0.93;0.53;;;;;;;;;;4960113;28;20696;-58
2023/01/09 04:47:26;;;;;;;1.00;0.70;;;;;;;;;;4986960;28;20504;-57
2023/01/09 04:49:52;;;;;;;1.30;0.67;;;;;;;;;;4997908;28;20443;-57
2023/01/09 04:52:18;;;;;;;1.10;0.80;;;;;;;;;;4996310;28;20466;-56
2023/01/09 04:54:44;;;;;;;1.50;0.60;;;;;;;;;;4987195;28;20968;-57
2023/01/09 04:57:10;;;;;;;1.00;0.63;;;;;;;;;;4966915;28;20450;-56
2023/01/09 04:59:36;;;;;;;1.00;0.60;;;;;;;;;;4987223;28;20816;-56
2023/01/09 05:02:02;;;;;;;1.00;0.50;;;;;;;;;;4944491;28;20594;-56
2023/01/09 05:04:28;;;;;;;1.13;0.60;;;;;;;;;;4991709;28;20452;-58
2023/01/09 05:06:54;;;;;;;1.20;0.60;;;;;;;;;;4947032;28;20434;-57
2023/01/09 05:09:21;;;;;;;1.10;0.80;;;;;;;;;;4985356;28;20437;-57
2023/01/09 05:11:47;;;;;;;1.00;0.70;;;;;;;;;;4965613;28;20551;-57
2023/01/09 05:14:12;;;;;;;1.37;0.80;;;;;;;;;;4990910;28;20452;-56
2023/01/09 05:16:38;;;;;;;0.90;0.50;;;;;;;;;;4964801;28;20451;-55
2023/01/09 05:19:04;;;;;;;1.33;0.70;;;;;;;;;;4991204;28;20438;-56
2023/01/09 05:21:30;;;;;;;2.50;0.93;;;;;;;;;;4983566;28;20826;-58
2023/01/09 05:23:56;;;;;;;1.10;0.67;;;;;;;;;;5000383;28;21418;-56
2023/01/09 05:26:23;;;;;;;0.90;0.60;;;;;;;;;;4943524;28;20555;-57
2023/01/09 05:28:51;;;;;;;1.30;0.80;;;;;;;;;;4993325;28;20659;-56
2023/01/09 05:31:18;;;;;;;1.10;0.63;;;;;;;;;;4954402;28;20437;-56
2023/01/09 05:33:44;;;;;;;3.60;0.60;;;;;;;;;;4981931;28;20634;-58
2023/01/09 05:36:10;;;;;;;2.43;0.83;;;;;;;;;;4972250;28;20483;-57
2023/01/09 05:38:36;;;;;;;0.90;0.53;;;;;;;;;;4973016;28;20452;-56
2023/01/09 05:41:02;;;;;;;0.90;0.50;;;;;;;;;;4972705;28;20732;-57
2023/01/09 05:43:28;;;;;;;1.10;0.70;;;;;;;;;;4968129;28;21393;-57
2023/01/09 05:45:54;;;;;;;4.60;0.70;;;;;;;;;;4981405;28;20463;-56
2023/01/09 05:48:20;;;;;;;1.20;0.90;;;;;;;;;;4977493;28;20525;-56
2023/01/09 05:50:47;;;;;;;1.07;0.60;;;;;;;;;;4984597;28;20436;-57
2023/01/09 05:53:12;;;;;;;1.10;0.63;;;;;;;;;;4963417;28;20495;-56
2023/01/09 05:55:38;;;;;;;1.93;1.83;;;;;;;;;;4987062;28;20539;-57
2023/01/09 05:58:04;;;;;;;1.67;1.03;;;;;;;;;;4966776;28;20324;-57
2023/01/09 06:00:30;;;;;;;2.50;0.60;;;;;;;;;;4983965;28;20449;-57
2023/01/09 06:02:56;;;;;;;2.63;0.97;;;;;;;;;;4947422;28;20483;-56
2023/01/09 06:05:22;;;;;;;1.33;0.83;;;;;;;;;;4985303;28;20701;-57
2023/01/09 06:07:48;;;;;;;2.07;0.70;;;;;;;;;;4952743;28;20486;-57
2023/01/09 06:10:14;;;;;;;2.13;0.87;;;;;;;;;;4988687;28;20490;-56
2023/01/09 06:12:43;;;;;;;3.70;1.07;;;;;;;;;;4966330;28;21871;-57
2023/01/09 06:15:09;;;;;;;1.47;0.90;;;;;;;;;;4976956;28;20653;-57
2023/01/09 06:17:35;;;;;;;2.80;0.70;;;;;;;;;;4968943;28;21076;-57
2023/01/09 06:20:01;;;;;;;0.90;0.57;;;;;;;;;;4995831;28;21004;-57
2023/01/09 06:22:30;;;;;;;3.03;1.30;;;;;;;;;;4973089;28;20487;-57
2023/01/09 06:24:56;;;;;;;1.77;1.17;;;;;;;;;;4997538;28;20518;-57
2023/01/09 06:27:22;;;;;;;1.30;0.90;;;;;;;;;;4976118;28;20453;-56
2023/01/09 06:29:48;;;;;;;1.23;0.83;;;;;;;;;;4987358;28;20864;-55
2023/01/09 06:32:17;;;;;;;1.23;0.93;;;;;;;;;;4970343;28;20565;-55
2023/01/09 06:34:43;;;;;;;2.80;1.17;;;;;;;;;;4971213;28;20432;-56
2023/01/09 06:37:09;;;;;;;1.70;1.13;;;;;;;;;;4987124;28;20513;-56
2023/01/09 06:39:35;;;;;;;1.40;0.90;;;;;;;;;;4981842;28;21000;-57
2023/01/09 06:42:02;;;;;;;1.83;1.17;;;;;;;;;;4966386;28;20499;-57
2023/01/09 06:44:28;;;;;;;1.50;0.83;;;;;;;;;;4991078;28;20436;-58
2023/01/09 06:46:53;;;;;;;1.40;1.00;;;;;;;;;;4972016;28;20546;-56
2023/01/09 06:49:22;;;;;;;1.00;0.70;;;;;;;;;;4995644;28;20432;-57
2023/01/09 06:51:49;;;;;;;2.10;1.10;;;;;;;;;;4979231;28;20440;-57
2023/01/09 06:54:15;;;;;;;2.03;0.80;;;;;;;;;;4988830;28;21173;-56
2023/01/09 06:56:42;;;;;;;1.47;1.10;;;;;;;;;;4964850;28;21144;-58
2023/01/09 06:59:07;;;;;;;1.40;0.90;;;;;;;;;;4993203;28;20432;-57
2023/01/09 07:01:33;;;;;;;3.83;1.10;;;;;;;;;;4986231;28;20443;-56
2023/01/09 07:03:59;;;;;;;2.57;1.17;;;;;;;;;;4995798;28;21272;-57
2023/01/09 07:06:25;;;;;;;5.47;1.40;;;;;;;;;;4947330;28;21164;-57
2023/01/09 07:08:51;;;;;;;2.97;1.80;;;;;;;;;;4978636;28;20460;-57
2023/01/09 07:11:17;;;;;;;2.67;1.50;;;;;;;;;;4968440;28;21153;-57
2023/01/09 07:13:43;;;;;;;2.33;1.23;;;;;;;;;;4989185;28;20448;-57
2023/01/09 07:16:09;;;;;;;5.17;2.33;;;;;;;;;;4989806;28;20893;-57
2023/01/09 07:18:35;;;;;;;10.10;4.67;;;;;;;;;;4971522;28;20507;-56
2023/01/09 07:21:01;;;;;;;8.90;3.67;;;;;;;;;;4991156;28;21252;-57
2023/01/09 07:23:27;;;;;;;6.83;4.70;;;;;;;;;;4981103;28;20574;-57
2023/01/09 07:25:53;;;;;;;11.03;4.67;;;;;;;;;;4993199;28;20464;-58
2023/01/09 07:28:19;;;;;;;3.13;1.70;;;;;;;;;;4965283;28;20595;-56
2023/01/09 07:30:45;;;;;;;4.63;1.90;;;;;;;;;;4992516;28;20773;-57
2023/01/09 07:33:11;;;;;;;5.33;1.80;;;;;;;;;;4985938;28;20705;-57
2023/01/09 07:35:37;;;;;;;2.90;1.60;;;;;;;;;;4991121;28;20439;-58
2023/01/09 07:38:03;;;;;;;3.63;1.60;;;;;;;;;;4955110;28;20798;-58
2023/01/09 07:40:29;;;;;;;6.43;2.87;;;;;;;;;;4989707;28;20448;-56
2023/01/09 07:42:55;;;;;;;1.40;0.90;;;;;;;;;;4942255;28;21040;-58
2023/01/09 07:45:21;;;;;;;3.93;1.37;;;;;;;;;;4969493;28;20552;-58
2023/01/09 07:47:47;;;;;;;1.10;0.90;;;;;;;;;;4963183;28;20459;-59
2023/01/09 07:50:13;;;;;;;1.87;0.90;;;;;;;;;;4988766;28;21325;-58
2023/01/09 07:52:39;;;;;;;2.50;1.23;;;;;;;;;;4965157;28;20438;-57
2023/01/09 07:55:05;;;;;;;1.30;0.80;;;;;;;;;;4984629;28;20467;-58
2023/01/09 07:57:31;;;;;;;7.33;1.70;;;;;;;;;;4942682;28;20530;-59
2023/01/09 07:59:59;;;;;;;3.93;1.17;;;;;;;;;;4986171;28;20546;-57
2023/01/09 08:02:26;;;;;;;3.03;1.10;;;;;;;;;;4958343;28;21130;-57
2023/01/09 08:04:52;;;;;;;4.60;1.27;;;;;;;;;;4984603;28;20492;-57
2023/01/09 08:07:18;;;;;;;2.10;1.00;;;;;;;;;;4966970;28;20444;-57
2023/01/09 08:09:44;;;;;;;5.90;1.23;;;;;;;;;;4989094;28;20189;-56
2023/01/09 08:12:11;;;;;;;3.10;0.90;;;;;;;;;;4921246;28;23190;-58
2023/01/09 08:14:37;;;;;;;2.70;1.20;;;;;;;;;;4972852;28;20871;-64
2023/01/09 08:17:03;;;;;;;4.20;1.33;;;;;;;;;;4967561;28;21377;-58
2023/01/09 08:19:29;;;;;;;2.10;0.80;;;;;;;;;;4987362;28;20440;-58
2023/01/09 08:21:55;;;;;;;5.17;1.10;;;;;;;;;;4966166;28;22942;-59
2023/01/09 08:24:21;;;;;;;2.60;1.00;;;;;;;;;;4975954;28;20454;-57
2023/01/09 08:26:47;;;;;;;4.60;1.10;;;;;;;;;;4977529;28;20499;-58
2023/01/09 08:29:13;;;;;;;3.33;1.60;;;;;;;;;;4978876;28;20482;-58
2023/01/09 08:31:39;;;;;;;2.63;1.10;;;;;;;;;;4980338;28;20440;-58
2023/01/09 08:34:05;;;;;;;1.30;1.00;;;;;;;;;;4973394;28;20181;-57
2023/01/09 08:36:31;;;;;;;1.87;1.00;;;;;;;;;;4988943;28;20436;-57
2023/01/09 08:38:57;;;;;;;1.23;1.13;;;;;;;;;;4962128;28;20451;-57
2023/01/09 08:47:04;;;;;;;2.60;1.20;;;;;;;;;;4974785;28;20503;-58
2023/01/09 08:49:30;;;;;;;1.37;0.67;;;;;;;;;;4984091;28;20443;-58
2023/01/09 08:51:56;;;;;;;1.47;1.03;;;;;;;;;;4985578;28;20924;-58
2023/01/09 08:54:22;;;;;;;2.60;1.37;;;;;;;;;;4989127;28;20498;-57
2023/01/09 08:56:48;;;;;;;2.10;1.00;;;;;;;;;;4961902;28;20468;-58
2023/01/09 08:59:15;;;;;;;1.23;0.60;;;;;;;;;;4982526;28;20501;-58
2023/01/09 09:01:41;;;;;;;7.43;1.10;;;;;;;;;;4986715;28;20439;-57
2023/01/09 09:04:07;;;;;;;1.20;0.83;;;;;;;;;;4990356;28;21191;-58
2023/01/09 09:06:33;;;;;;;1.10;0.80;;;;;;;;;;4988334;28;20440;-56
2023/01/09 09:09:02;;;;;;;2.00;1.20;;;;;;;;;;4972945;28;22314;-59
2023/01/09 09:11:32;;;;;;;2.60;0.90;;;;;;;;;;4984236;28;21964;-59
2023/01/09 09:13:58;;;;;;;1.57;1.00;;;;;;;;;;4988395;28;20464;-58
2023/01/09 09:16:25;;;;;;;1.20;0.80;;;;;;;;;;4991249;28;20471;-56
2023/01/09 09:18:51;;;;;;;3.20;1.40;;;;;;;;;;4948403;28;20529;-56
2023/01/09 09:21:17;;;;;;;1.63;0.90;;;;;;;;;;4982466;28;20916;-56
2023/01/09 09:23:43;;;;;;;1.83;1.07;;;;;;;;;;4969197;28;20475;-56
2023/01/09 09:26:09;;;;;;;3.43;1.33;;;;;;;;;;4994151;28;20254;-57
2023/01/09 09:28:35;;;;;;;2.30;0.90;;;;;;;;;;4950518;28;20490;-57
2023/01/09 09:31:04;;;;;;;1.30;0.70;;;;;;;;;;4996751;28;20458;-57
2023/01/09 09:33:30;;;;;;;5.43;1.00;;;;;;;;;;4973100;28;20483;-58
2023/01/09 09:35:58;;;;;;;2.33;0.80;;;;;;;;;;4992176;28;20548;-57
2023/01/09 09:38:23;;;;;;;4.83;1.23;;;;;;;;;;4970495;28;21107;-57
2023/01/09 09:44:45;;;;;;;1.60;0.90;;;;;;;;;;4895697;29;20455;-59
2023/01/09 09:47:23;;;;;;;4.83;0.90;;;;;;;;;;4944820;28;20613;-58
2023/01/09 09:49:57;;;;;;;2.50;1.13;;;;;;;;;;4904452;28;20987;-57
2023/01/09 09:52:32;;;;;;;1.10;0.70;;;;;;;;;;4931828;28;20536;-58
2023/01/09 09:54:58;;;;;;;2.20;1.00;;;;;;;;;;4962359;28;21075;-58
2023/01/09 09:57:25;;;;;;;2.50;1.40;;;;;;;;;;4998390;28;20436;-58
2023/01/09 09:59:51;;;;;;;1.50;0.90;;;;;;;;;;4951432;28;20525;-61
2023/01/09 10:02:25;;;;;;;2.70;1.07;;;;;;;;;;4977978;28;21938;-57
2023/01/09 10:04:55;;;;;;;6.47;0.97;;;;;;;;;;4976244;28;21537;-58
2023/01/09 10:07:29;;;;;;;2.10;1.17;;;;;;;;;;4976411;28;20835;-58
2023/01/09 10:09:56;;;;;;;2.43;1.10;;;;;;;;;;4948942;28;20973;-58
2023/01/09 10:12:32;;;;;;;2.33;2.03;;;;;;;;;;4992084;28;20444;-56
2023/01/09 10:14:59;;;;;;;4.63;1.30;;;;;;;;;;4969496;28;20467;-57
2023/01/09 10:17:44;;;;;;;2.27;1.00;;;;;;;;;;4990747;28;21535;-57
2023/01/09 10:20:20;;;;;;;3.93;1.80;;;;;;;;;;4950320;28;20668;-57
2023/01/09 10:22:49;;;;;;;5.47;1.10;;;;;;;;;;4966481;28;20980;-57
2023/01/09 10:25:31;;;;;;;4.67;1.23;;;;;;;;;;4990333;28;20486;-57
2023/01/09 10:28:11;;;;;;;7.23;1.13;;;;;;;;;;4973889;28;20432;-56
2023/01/09 10:30:37;;;;;;;2.00;1.00;;;;;;;;;;4958849;28;20447;-58
2023/01/09 10:33:11;;;;;;;6.10;0.90;;;;;;;;;;4992972;28;20431;-57
2023/01/09 10:35:41;;;;;;;6.53;1.17;;;;;;;;;;4949811;28;20439;-57
2023/01/09 10:38:08;;;;;;;5.53;1.20;;;;;;;;;;4974435;28;20429;-56
2023/01/09 10:41:02;;;;;;;2.10;1.03;;;;;;;;;;4952394;28;20440;-57
2023/01/09 10:43:31;;;;;;;2.20;1.10;;;;;;;;;;4985707;28;20932;-57
2023/01/09 10:46:00;;;;;;;1.77;1.00;;;;;;;;;;4988610;28;20456;-58
2023/01/09 10:48:26;;;;;;;2.70;1.40;;;;;;;;;;4992194;28;20997;-58
2023/01/09 10:50:52;;;;;;;11.20;1.60;;;;;;;;;;4956570;28;20456;-57
2023/01/09 10:53:22;;;;;;;4.67;1.03;;;;;;;;;;4968124;28;20440;-56
2023/01/09 10:55:48;;;;;;;1.80;1.00;;;;;;;;;;4974133;28;20429;-57
2023/01/09 10:58:18;;;;;;;1.60;1.07;;;;;;;;;;4991042;28;20424;-58
2023/01/09 11:00:44;;;;;;;2.03;0.83;;;;;;;;;;4964248;28;20436;-58
2023/01/09 11:03:13;;;;;;;2.03;1.30;;;;;;;;;;4986728;28;20814;-58
2023/01/09 11:05:39;;;;;;;1.73;1.20;;;;;;;;;;4973860;28;20472;-57
2023/01/09 11:08:08;;;;;;;4.77;1.27;;;;;;;;;;4988925;28;20479;-58
2023/01/09 11:10:43;;;;;;;3.30;1.13;;;;;;;;;;4970968;28;20433;-58
2023/01/09 11:13:25;;;;;;;5.93;1.20;;;;;;;;;;4991362;28;20513;-57
2023/01/09 11:16:27;;;;;;;2.50;1.10;;;;;;;;;;4992330;28;21043;-58
2023/01/09 11:18:54;;;;;;;2.53;1.00;;;;;;;;;;4935672;28;20968;-58
2023/01/09 11:21:34;;;;;;;3.90;1.80;;;;;;;;;;4930579;28;20463;-57
2023/01/09 11:24:19;;;;;;;3.53;1.30;;;;;;;;;;4986328;28;20970;-56
2023/01/09 11:26:46;;;;;;;2.20;1.40;;;;;;;;;;4972351;28;20428;-58
2023/01/09 11:29:12;;;;;;;1.77;1.30;;;;;;;;;;4994051;28;20463;-56
2023/01/09 11:31:42;;;;;;;1.53;1.20;;;;;;;;;;4959206;28;20571;-59
2023/01/09 11:34:17;;;;;;;3.47;2.03;;;;;;;;;;4978372;28;20449;-56
2023/01/09 11:36:43;;;;;;;2.90;1.20;;;;;;;;;;4969476;28;20451;-58
2023/01/09 11:39:18;;;;;;;2.30;1.00;;;;;;;;;;4976281;28;20762;-57
2023/01/09 11:41:44;;;;;;;4.77;1.60;;;;;;;;;;4914304;28;20487;-59
2023/01/09 11:44:10;;;;;;;4.50;1.10;;;;;;;;;;4949431;28;20440;-56
2023/01/09 11:46:41;;;;;;;2.53;1.10;;;;;;;;;;4949603;28;20276;-56
2023/01/09 11:49:22;;;;;;;2.13;1.53;;;;;;;;;;4964637;28;20502;-59
2023/01/09 11:52:07;;;;;;;2.40;1.00;;;;;;;;;;4940418;28;20459;-57
2023/01/09 11:54:34;;;;;;;1.30;0.80;;;;;;;;;;4966161;28;21638;-56
2023/01/09 11:57:00;;;;;;;3.03;1.47;;;;;;;;;;4971955;28;20623;-56
2023/01/09 11:59:26;;;;;;;2.70;1.00;;;;;;;;;;4959042;28;21435;-56
2023/01/09 12:01:55;;;;;;;3.20;1.23;;;;;;;;;;4980545;28;20200;-56
2023/01/09 12:04:27;;;;;;;6.30;0.93;;;;;;;;;;4976781;28;20475;-57
2023/01/09 12:06:57;;;;;;;3.17;1.10;;;;;;;;;;4962782;28;21735;-57
2023/01/09 12:09:32;;;;;;;2.83;1.27;;;;;;;;;;4972373;28;20451;-58
2023/01/09 12:12:11;;;;;;;5.20;1.67;;;;;;;;;;4992232;28;21046;-58
2023/01/09 12:14:41;;;;;;;6.10;2.93;;;;;;;;;;4949729;28;20458;-58
2023/01/09 12:17:26;;;;;;;2.60;1.60;;;;;;;;;;4972939;28;20428;-57
2023/01/09 12:20:10;;;;;;;5.67;1.73;;;;;;;;;;4961765;28;20451;-58
2023/01/09 12:22:39;;;;;;;3.77;1.03;;;;;;;;;;4981415;28;21024;-58
2023/01/09 12:25:28;;;;;;;2.80;1.00;;;;;;;;;;4969582;28;20454;-58
2023/01/09 12:27:54;;;;;;;5.93;1.60;;;;;;;;;;4974916;28;20837;-57
2023/01/09 12:30:25;;;;;;;3.07;1.80;;;;;;;;;;4965060;28;20513;-57
2023/01/09 12:32:54;;;;;;;2.67;1.43;;;;;;;;;;4987848;28;20663;-56
2023/01/09 12:35:29;;;;;;;17.47;10.23;;;;;;;;;;4968285;28;21016;-57
2023/01/09 12:37:58;;;;;;;18.17;8.60;;;;;;;;;;4963448;28;20502;-57
2023/01/09 12:40:23;;;;;;;6.40;3.07;;;;;;;;;;4972969;28;20569;-58
2023/01/09 12:42:55;;;;;;;6.90;6.20;;;;;;;;;;4988673;28;20490;-58
2023/01/09 12:45:48;;;;;;;1.80;1.20;;;;;;;;;;4956507;28;20904;-57
2023/01/09 12:48:26;;;;;;;7.83;1.83;;;;;;;;;;4993750;28;20455;-59
2023/01/09 12:51:10;;;;;;;1.53;1.30;;;;;;;;;;4969863;28;20431;-58
2023/01/09 12:53:41;;;;;;;7.10;1.67;;;;;;;;;;4982854;28;20577;-59
2023/01/09 12:56:08;;;;;;;5.20;1.50;;;;;;;;;;4934772;28;21659;-56
2023/01/09 12:58:44;;;;;;;1.80;1.27;;;;;;;;;;4989030;28;20970;-59
2023/01/09 13:01:13;;;;;;;2.23;1.80;;;;;;;;;;4993893;28;20437;-59
2023/01/09 13:03:48;;;;;;;3.57;1.10;;;;;;;;;;4951366;28;21111;-58
2023/01/09 13:06:16;;;;;;;2.47;1.10;;;;;;;;;;4972378;28;20442;-57
2023/01/09 13:08:44;;;;;;;2.30;1.53;;;;;;;;;;4963083;28;20529;-58
2023/01/09 13:11:10;;;;;;;1.70;0.80;;;;;;;;;;4971562;28;20543;-59
2023/01/09 13:13:54;;;;;;;2.30;1.13;;;;;;;;;;4986833;28;20563;-58
2023/01/09 13:16:21;;;;;;;3.37;1.70;;;;;;;;;;4977076;28;20458;-59
2023/01/09 13:18:49;;;;;;;7.63;6.90;;;;;;;;;;4957235;28;20446;-57
2023/01/09 13:21:15;;;;;;;2.70;1.70;;;;;;;;;;4957889;28;20448;-58
2023/01/09 13:23:41;;;;;;;1.60;0.90;;;;;;;;;;4980104;28;23505;-58
2023/01/09 13:26:08;;;;;;;5.20;2.50;;;;;;;;;;4965151;28;20475;-58
2023/01/09 13:28:35;;;;;;;3.60;1.53;;;;;;;;;;4985631;28;20456;-58
2023/01/09 13:31:16;;;;;;;1.60;1.33;;;;;;;;;;4926511;28;20550;-57
2023/01/09 13:33:43;;;;;;;1.20;1.10;;;;;;;;;;4993935;28;21149;-58
2023/01/09 13:36:09;;;;;;;3.33;1.50;;;;;;;;;;4986669;28;20435;-57
2023/01/09 13:38:35;;;;;;;3.07;1.07;;;;;;;;;;4970917;28;20436;-57
2023/01/09 13:42:34;;;;;;;4.73;1.20;;;;;;;;;;4968565;28;20440;-58
2023/01/09 13:43:58;;;;;;;2.60;1.30;;;;;;;;;;4985330;28;20518;-57
2023/01/09 13:46:30;;;;;;;1.73;0.90;;;;;;;;;;4961545;28;20486;-58
2023/01/09 13:48:56;;;;;;;1.67;0.73;;;;;;;;;;4971351;28;20510;-57
2023/01/09 13:51:35;;;;;;;5.93;1.10;;;;;;;;;;4947006;28;20440;-57
2023/01/09 13:54:00;;;;;;;1.63;1.00;;;;;;;;;;4991666;28;20459;-57
2023/01/09 13:56:26;;;;;;;1.40;0.60;;;;;;;;;;4954499;28;20560;-57
2023/01/09 13:58:56;;;;;;;1.00;0.60;;;;;;;;;;4994235;28;20443;-57
2023/01/09 14:01:36;;;;;;;2.43;0.80;;;;;;;;;;4943474;28;20541;-57
2023/01/09 14:04:14;;;;;;;2.57;1.50;;;;;;;;;;4981404;28;21218;-57
2023/01/09 14:06:43;;;;;;;1.00;0.70;;;;;;;;;;4979089;28;20440;-58
2023/01/09 14:09:19;;;;;;;1.63;0.97;;;;;;;;;;4986919;28;20447;-59
2023/01/09 14:11:45;;;;;;;1.50;0.83;;;;;;;;;;4964828;28;20470;-63
2023/01/09 14:14:18;;;;;;;2.03;0.90;;;;;;;;;;4984914;28;21000;-58
2023/01/09 14:16:44;;;;;;;2.33;1.57;;;;;;;;;;4961371;28;20432;-57
2023/01/09 14:19:16;;;;;;;3.53;0.70;;;;;;;;;;4964110;28;21206;-58
2023/01/09 14:21:47;;;;;;;2.20;0.80;;;;;;;;;;4953304;28;23015;-58
2023/01/09 14:24:18;;;;;;;1.87;1.60;;;;;;;;;;4973573;28;20464;-58
2023/01/09 14:26:45;;;;;;;5.07;1.10;;;;;;;;;;4959566;28;20455;-58
2023/01/09 14:29:30;;;;;;;1.70;0.97;;;;;;;;;;4994347;28;20543;-58
2023/01/09 14:32:15;;;;;;;1.20;0.63;;;;;;;;;;4946160;28;20593;-57
2023/01/09 14:34:41;;;;;;;1.10;0.80;;;;;;;;;;4975901;28;21003;-58
2023/01/09 14:37:08;;;;;;;1.90;0.90;;;;;;;;;;4940427;28;20456;-60
2023/01/09 14:39:34;;;;;;;0.97;0.60;;;;;;;;;;4957509;28;20443;-57
2023/01/09 14:42:08;;;;;;;4.00;0.93;;;;;;;;;;4977367;28;20799;-57
2023/01/09 14:44:52;;;;;;;2.47;0.90;;;;;;;;;;4969429;28;20544;-57
2023/01/09 14:47:30;;;;;;;1.10;0.80;;;;;;;;;;4990007;28;20460;-58
2023/01/09 14:50:05;;;;;;;3.30;0.80;;;;;;;;;;4956489;28;20738;-58
2023/01/09 14:52:33;;;;;;;2.03;0.90;;;;;;;;;;4982361;28;20439;-57
2023/01/09 14:55:03;;;;;;;1.67;0.83;;;;;;;;;;4946486;28;21803;-56
2023/01/09 14:57:35;;;;;;;1.00;0.70;;;;;;;;;;4963300;28;20568;-57
2023/01/09 15:00:02;;;;;;;1.10;0.80;;;;;;;;;;4953910;28;21931;-58
2023/01/09 15:02:32;;;;;;;2.53;1.00;;;;;;;;;;4974770;28;20483;-59
2023/01/09 15:05:10;;;;;;;1.43;0.90;;;;;;;;;;4950761;28;20539;-58
2023/01/09 15:07:39;;;;;;;1.10;0.80;;;;;;;;;;4994524;28;21011;-57